sensor_id;sensor_type;location;lat;lon;timestamp;P1;durP1;ratioP1;P2;durP2;ratioP2
43088;SDS011;28709;52.030;5.652;2022-12-07T00:01:34;8.05;;;3.92;;
43088;SDS011;28709;52.030;5.652;2022-12-07T00:04:03;7.47;;;2.83;;
43088;SDS011;28709;52.030;5.652;2022-12-07T00:06:37;6.10;;;3.40;;
43088;SDS011;28709;52.030;5.652;2022-12-07T00:09:06;5.68;;;3.28;;
43088;SDS011;28709;52.030;5.652;2022-12-07T00:11:32;4.50;;;2.85;;
43088;SDS011;28709;52.030;5.652;2022-12-07T00:13:59;3.80;;;2.83;;
43088;SDS011;28709;52.030;5.652;2022-12-07T00:16:27;4.78;;;3.08;;
43088;SDS011;28709;52.030;5.652;2022-12-07T00:18:55;4.30;;;2.78;;
43088;SDS011;28709;52.030;5.652;2022-12-07T00:21:23;5.40;;;2.90;;
43088;SDS011;28709;52.030;5.652;2022-12-07T00:23:51;6.15;;;3.20;;
43088;SDS011;28709;52.030;5.652;2022-12-07T00:26:22;8.93;;;3.78;;
43088;SDS011;28709;52.030;5.652;2022-12-07T00:28:53;3.80;;;2.42;;
43088;SDS011;28709;52.030;5.652;2022-12-07T00:31:21;4.35;;;2.63;;
43088;SDS011;28709;52.030;5.652;2022-12-07T00:33:48;4.20;;;2.60;;
43088;SDS011;28709;52.030;5.652;2022-12-07T00:36:15;6.15;;;3.28;;
43088;SDS011;28709;52.030;5.652;2022-12-07T00:38:43;6.70;;;2.78;;
43088;SDS011;28709;52.030;5.652;2022-12-07T00:41:13;5.18;;;2.70;;
43088;SDS011;28709;52.030;5.652;2022-12-07T00:43:40;5.28;;;2.85;;
43088;SDS011;28709;52.030;5.652;2022-12-07T00:46:07;7.72;;;2.65;;
43088;SDS011;28709;52.030;5.652;2022-12-07T00:48:33;6.38;;;3.78;;
43088;SDS011;28709;52.030;5.652;2022-12-07T00:50:59;4.63;;;2.50;;
43088;SDS011;28709;52.030;5.652;2022-12-07T00:53:25;4.63;;;2.88;;
43088;SDS011;28709;52.030;5.652;2022-12-07T00:55:51;4.45;;;2.83;;
43088;SDS011;28709;52.030;5.652;2022-12-07T00:58:17;5.53;;;3.03;;
43088;SDS011;28709;52.030;5.652;2022-12-07T01:00:44;5.10;;;3.17;;
43088;SDS011;28709;52.030;5.652;2022-12-07T01:03:10;6.18;;;3.05;;
43088;SDS011;28709;52.030;5.652;2022-12-07T01:05:37;4.13;;;2.88;;
43088;SDS011;28709;52.030;5.652;2022-12-07T01:08:03;5.53;;;3.30;;
43088;SDS011;28709;52.030;5.652;2022-12-07T01:10:29;9.52;;;3.70;;
43088;SDS011;28709;52.030;5.652;2022-12-07T01:12:56;5.35;;;2.83;;
43088;SDS011;28709;52.030;5.652;2022-12-07T01:15:22;6.15;;;3.75;;
43088;SDS011;28709;52.030;5.652;2022-12-07T01:17:48;7.88;;;4.03;;
43088;SDS011;28709;52.030;5.652;2022-12-07T01:20:15;4.97;;;2.80;;
43088;SDS011;28709;52.030;5.652;2022-12-07T01:22:41;4.93;;;3.13;;
43088;SDS011;28709;52.030;5.652;2022-12-07T01:25:09;8.43;;;2.92;;
43088;SDS011;28709;52.030;5.652;2022-12-07T01:27:36;5.07;;;2.70;;
43088;SDS011;28709;52.030;5.652;2022-12-07T01:30:04;3.72;;;2.65;;
43088;SDS011;28709;52.030;5.652;2022-12-07T01:32:31;5.75;;;3.17;;
43088;SDS011;28709;52.030;5.652;2022-12-07T01:34:57;6.70;;;3.40;;
43088;SDS011;28709;52.030;5.652;2022-12-07T01:37:22;5.65;;;2.65;;
43088;SDS011;28709;52.030;5.652;2022-12-07T01:39:49;7.15;;;2.83;;
43088;SDS011;28709;52.030;5.652;2022-12-07T01:42:15;4.40;;;2.70;;
43088;SDS011;28709;52.030;5.652;2022-12-07T01:47:41;6.43;;;3.17;;
43088;SDS011;28709;52.030;5.652;2022-12-07T01:50:13;5.55;;;3.00;;
43088;SDS011;28709;52.030;5.652;2022-12-07T01:52:39;8.13;;;2.95;;
43088;SDS011;28709;52.030;5.652;2022-12-07T01:55:10;3.85;;;2.17;;
43088;SDS011;28709;52.030;5.652;2022-12-07T01:57:40;18.17;;;4.40;;
43088;SDS011;28709;52.030;5.652;2022-12-07T02:00:10;8.73;;;3.28;;
43088;SDS011;28709;52.030;5.652;2022-12-07T02:02:37;4.35;;;2.53;;
43088;SDS011;28709;52.030;5.652;2022-12-07T02:05:15;5.90;;;3.03;;
43088;SDS011;28709;52.030;5.652;2022-12-07T02:07:42;5.28;;;2.58;;
43088;SDS011;28709;52.030;5.652;2022-12-07T02:10:14;6.88;;;2.60;;
43088;SDS011;28709;52.030;5.652;2022-12-07T02:13:11;17.50;;;4.18;;
43088;SDS011;28709;52.030;5.652;2022-12-07T02:24:13;4.85;;;2.33;;
43088;SDS011;28709;52.030;5.652;2022-12-07T02:34:34;4.60;;;2.30;;
43088;SDS011;28709;52.030;5.652;2022-12-07T02:37:09;4.30;;;2.30;;
43088;SDS011;28709;52.030;5.652;2022-12-07T02:39:46;10.70;;;3.63;;
43088;SDS011;28709;52.030;5.652;2022-12-07T02:44:48;10.38;;;5.82;;
43088;SDS011;28709;52.030;5.652;2022-12-07T02:47:16;10.50;;;5.50;;
43088;SDS011;28709;52.030;5.652;2022-12-07T02:49:44;14.02;;;5.65;;
43088;SDS011;28709;52.030;5.652;2022-12-07T02:52:10;12.30;;;4.80;;
43088;SDS011;28709;52.030;5.652;2022-12-07T02:54:36;7.70;;;3.63;;
43088;SDS011;28709;52.030;5.652;2022-12-07T03:13:23;3.35;;;2.33;;
43088;SDS011;28709;52.030;5.652;2022-12-07T03:16:03;5.97;;;2.20;;
43088;SDS011;28709;52.030;5.652;2022-12-07T03:18:40;4.57;;;2.50;;
43088;SDS011;28709;52.030;5.652;2022-12-07T03:21:38;5.43;;;2.65;;
43088;SDS011;28709;52.030;5.652;2022-12-07T03:24:08;4.38;;;2.30;;
43088;SDS011;28709;52.030;5.652;2022-12-07T03:26:39;2.92;;;2.10;;
43088;SDS011;28709;52.030;5.652;2022-12-07T03:29:26;6.10;;;2.70;;
43088;SDS011;28709;52.030;5.652;2022-12-07T03:32:01;6.80;;;3.75;;
43088;SDS011;28709;52.030;5.652;2022-12-07T03:34:36;5.88;;;2.67;;
43088;SDS011;28709;52.030;5.652;2022-12-07T03:37:05;5.20;;;2.67;;
43088;SDS011;28709;52.030;5.652;2022-12-07T03:39:41;11.57;;;4.00;;
43088;SDS011;28709;52.030;5.652;2022-12-07T03:42:14;4.40;;;2.25;;
43088;SDS011;28709;52.030;5.652;2022-12-07T03:44:40;5.05;;;2.30;;
43088;SDS011;28709;52.030;5.652;2022-12-07T03:47:15;4.30;;;2.38;;
43088;SDS011;28709;52.030;5.652;2022-12-07T03:52:47;5.47;;;2.75;;
43088;SDS011;28709;52.030;5.652;2022-12-07T03:57:58;5.15;;;3.00;;
43088;SDS011;28709;52.030;5.652;2022-12-07T04:00:27;5.43;;;2.53;;
43088;SDS011;28709;52.030;5.652;2022-12-07T04:02:53;4.47;;;2.28;;
43088;SDS011;28709;52.030;5.652;2022-12-07T04:05:20;5.78;;;2.28;;
43088;SDS011;28709;52.030;5.652;2022-12-07T04:07:46;5.78;;;2.03;;
43088;SDS011;28709;52.030;5.652;2022-12-07T04:10:12;6.90;;;2.08;;
43088;SDS011;28709;52.030;5.652;2022-12-07T04:12:38;3.17;;;1.90;;
43088;SDS011;28709;52.030;5.652;2022-12-07T04:15:04;3.40;;;2.00;;
43088;SDS011;28709;52.030;5.652;2022-12-07T04:17:30;7.78;;;2.33;;
43088;SDS011;28709;52.030;5.652;2022-12-07T04:19:56;2.25;;;1.60;;
43088;SDS011;28709;52.030;5.652;2022-12-07T04:22:22;5.60;;;1.63;;
43088;SDS011;28709;52.030;5.652;2022-12-07T04:24:47;3.67;;;1.33;;
43088;SDS011;28709;52.030;5.652;2022-12-07T04:27:13;5.38;;;1.60;;
43088;SDS011;28709;52.030;5.652;2022-12-07T04:29:39;4.55;;;1.90;;
43088;SDS011;28709;52.030;5.652;2022-12-07T04:32:04;3.92;;;1.65;;
43088;SDS011;28709;52.030;5.652;2022-12-07T04:34:30;5.03;;;1.70;;
43088;SDS011;28709;52.030;5.652;2022-12-07T04:36:56;3.72;;;1.58;;
43088;SDS011;28709;52.030;5.652;2022-12-07T04:39:29;4.78;;;1.05;;
43088;SDS011;28709;52.030;5.652;2022-12-07T04:41:56;2.70;;;1.30;;
43088;SDS011;28709;52.030;5.652;2022-12-07T04:44:23;2.65;;;1.10;;
43088;SDS011;28709;52.030;5.652;2022-12-07T04:46:50;5.72;;;1.85;;
43088;SDS011;28709;52.030;5.652;2022-12-07T04:49:17;3.60;;;1.58;;
43088;SDS011;28709;52.030;5.652;2022-12-07T04:51:43;5.15;;;1.75;;
43088;SDS011;28709;52.030;5.652;2022-12-07T04:54:09;5.82;;;1.67;;
43088;SDS011;28709;52.030;5.652;2022-12-07T04:56:35;3.38;;;1.02;;
43088;SDS011;28709;52.030;5.652;2022-12-07T04:59:02;3.88;;;1.20;;
43088;SDS011;28709;52.030;5.652;2022-12-07T05:01:28;4.93;;;1.75;;
43088;SDS011;28709;52.030;5.652;2022-12-07T05:03:54;5.55;;;1.30;;
43088;SDS011;28709;52.030;5.652;2022-12-07T05:06:20;2.03;;;0.80;;
43088;SDS011;28709;52.030;5.652;2022-12-07T05:08:45;2.55;;;0.93;;
43088;SDS011;28709;52.030;5.652;2022-12-07T05:11:12;1.83;;;1.17;;
43088;SDS011;28709;52.030;5.652;2022-12-07T05:13:58;2.33;;;1.17;;
43088;SDS011;28709;52.030;5.652;2022-12-07T05:16:23;4.22;;;1.20;;
43088;SDS011;28709;52.030;5.652;2022-12-07T05:18:49;2.00;;;0.88;;
43088;SDS011;28709;52.030;5.652;2022-12-07T05:21:15;4.75;;;1.60;;
43088;SDS011;28709;52.030;5.652;2022-12-07T05:23:41;4.68;;;1.25;;
43088;SDS011;28709;52.030;5.652;2022-12-07T05:26:06;3.88;;;1.45;;
43088;SDS011;28709;52.030;5.652;2022-12-07T05:28:32;9.23;;;1.80;;
43088;SDS011;28709;52.030;5.652;2022-12-07T05:30:57;4.45;;;1.38;;
43088;SDS011;28709;52.030;5.652;2022-12-07T05:33:23;4.85;;;1.40;;
43088;SDS011;28709;52.030;5.652;2022-12-07T05:35:49;7.82;;;2.22;;
43088;SDS011;28709;52.030;5.652;2022-12-07T05:38:14;3.05;;;0.73;;
43088;SDS011;28709;52.030;5.652;2022-12-07T05:40:40;1.95;;;0.88;;
43088;SDS011;28709;52.030;5.652;2022-12-07T05:43:05;2.70;;;1.02;;
43088;SDS011;28709;52.030;5.652;2022-12-07T05:45:31;3.75;;;0.98;;
43088;SDS011;28709;52.030;5.652;2022-12-07T05:47:57;2.05;;;1.10;;
43088;SDS011;28709;52.030;5.652;2022-12-07T05:50:22;2.67;;;0.80;;
43088;SDS011;28709;52.030;5.652;2022-12-07T05:52:48;4.78;;;1.02;;
43088;SDS011;28709;52.030;5.652;2022-12-07T05:55:14;2.92;;;1.13;;
43088;SDS011;28709;52.030;5.652;2022-12-07T05:57:39;4.15;;;1.00;;
43088;SDS011;28709;52.030;5.652;2022-12-07T06:00:25;3.55;;;1.15;;
43088;SDS011;28709;52.030;5.652;2022-12-07T06:02:51;2.35;;;0.70;;
43088;SDS011;28709;52.030;5.652;2022-12-07T06:05:16;4.80;;;0.82;;
43088;SDS011;28709;52.030;5.652;2022-12-07T06:07:42;1.20;;;0.60;;
43088;SDS011;28709;52.030;5.652;2022-12-07T06:10:07;5.90;;;1.45;;
43088;SDS011;28709;52.030;5.652;2022-12-07T06:12:33;5.82;;;1.73;;
43088;SDS011;28709;52.030;5.652;2022-12-07T06:14:59;1.90;;;0.80;;
43088;SDS011;28709;52.030;5.652;2022-12-07T06:17:25;1.88;;;0.70;;
43088;SDS011;28709;52.030;5.652;2022-12-07T06:19:50;0.70;;;0.50;;
43088;SDS011;28709;52.030;5.652;2022-12-07T06:22:16;1.75;;;0.65;;
43088;SDS011;28709;52.030;5.652;2022-12-07T06:24:42;4.80;;;1.70;;
43088;SDS011;28709;52.030;5.652;2022-12-07T06:27:08;6.18;;;1.67;;
43088;SDS011;28709;52.030;5.652;2022-12-07T06:29:34;3.33;;;1.00;;
43088;SDS011;28709;52.030;5.652;2022-12-07T06:32:00;2.95;;;0.88;;
43088;SDS011;28709;52.030;5.652;2022-12-07T06:34:26;3.65;;;0.80;;
43088;SDS011;28709;52.030;5.652;2022-12-07T06:36:52;4.03;;;0.68;;
43088;SDS011;28709;52.030;5.652;2022-12-07T06:39:23;4.10;;;0.70;;
43088;SDS011;28709;52.030;5.652;2022-12-07T06:41:50;3.85;;;0.88;;
43088;SDS011;28709;52.030;5.652;2022-12-07T06:44:19;5.40;;;0.93;;
43088;SDS011;28709;52.030;5.652;2022-12-07T06:46:46;5.38;;;1.15;;
43088;SDS011;28709;52.030;5.652;2022-12-07T06:49:12;7.85;;;1.27;;
43088;SDS011;28709;52.030;5.652;2022-12-07T06:51:38;3.78;;;0.85;;
43088;SDS011;28709;52.030;5.652;2022-12-07T06:54:06;7.38;;;1.73;;
43088;SDS011;28709;52.030;5.652;2022-12-07T06:56:36;6.78;;;1.38;;
43088;SDS011;28709;52.030;5.652;2022-12-07T06:59:02;3.67;;;0.80;;
43088;SDS011;28709;52.030;5.652;2022-12-07T07:01:28;1.90;;;0.65;;
43088;SDS011;28709;52.030;5.652;2022-12-07T07:03:54;5.60;;;1.10;;
43088;SDS011;28709;52.030;5.652;2022-12-07T07:06:20;4.13;;;1.13;;
43088;SDS011;28709;52.030;5.652;2022-12-07T07:08:45;4.03;;;1.02;;
43088;SDS011;28709;52.030;5.652;2022-12-07T07:11:11;10.60;;;2.63;;
43088;SDS011;28709;52.030;5.652;2022-12-07T07:13:37;5.13;;;1.40;;
43088;SDS011;28709;52.030;5.652;2022-12-07T07:16:03;4.90;;;1.63;;
43088;SDS011;28709;52.030;5.652;2022-12-07T07:18:29;7.47;;;1.88;;
43088;SDS011;28709;52.030;5.652;2022-12-07T07:20:54;3.30;;;1.30;;
43088;SDS011;28709;52.030;5.652;2022-12-07T07:23:20;6.32;;;1.00;;
43088;SDS011;28709;52.030;5.652;2022-12-07T07:25:47;5.85;;;1.30;;
43088;SDS011;28709;52.030;5.652;2022-12-07T07:28:13;4.72;;;1.50;;
43088;SDS011;28709;52.030;5.652;2022-12-07T07:30:39;3.47;;;1.52;;
43088;SDS011;28709;52.030;5.652;2022-12-07T07:33:05;6.80;;;1.65;;
43088;SDS011;28709;52.030;5.652;2022-12-07T07:35:32;5.93;;;1.35;;
43088;SDS011;28709;52.030;5.652;2022-12-07T07:37:58;7.57;;;1.33;;
43088;SDS011;28709;52.030;5.652;2022-12-07T07:40:24;3.28;;;1.08;;
43088;SDS011;28709;52.030;5.652;2022-12-07T07:42:50;2.92;;;1.00;;
43088;SDS011;28709;52.030;5.652;2022-12-07T07:45:18;5.60;;;1.50;;
43088;SDS011;28709;52.030;5.652;2022-12-07T07:47:45;9.98;;;1.45;;
43088;SDS011;28709;52.030;5.652;2022-12-07T07:50:10;4.65;;;1.58;;
43088;SDS011;28709;52.030;5.652;2022-12-07T07:52:36;6.18;;;1.25;;
43088;SDS011;28709;52.030;5.652;2022-12-07T07:55:02;4.97;;;1.20;;
43088;SDS011;28709;52.030;5.652;2022-12-07T07:57:28;6.55;;;2.33;;
43088;SDS011;28709;52.030;5.652;2022-12-07T07:59:53;4.38;;;1.58;;
43088;SDS011;28709;52.030;5.652;2022-12-07T08:02:20;5.78;;;1.25;;
43088;SDS011;28709;52.030;5.652;2022-12-07T08:04:47;3.85;;;1.70;;
43088;SDS011;28709;52.030;5.652;2022-12-07T08:07:13;3.63;;;1.15;;
43088;SDS011;28709;52.030;5.652;2022-12-07T08:09:39;7.30;;;2.28;;
43088;SDS011;28709;52.030;5.652;2022-12-07T08:12:05;7.60;;;1.67;;
43088;SDS011;28709;52.030;5.652;2022-12-07T08:14:31;8.75;;;1.40;;
43088;SDS011;28709;52.030;5.652;2022-12-07T08:16:57;2.33;;;0.95;;
43088;SDS011;28709;52.030;5.652;2022-12-07T08:19:23;3.70;;;1.30;;
43088;SDS011;28709;52.030;5.652;2022-12-07T08:21:49;3.15;;;1.30;;
43088;SDS011;28709;52.030;5.652;2022-12-07T08:24:15;6.57;;;1.90;;
43088;SDS011;28709;52.030;5.652;2022-12-07T08:26:41;7.70;;;2.10;;
43088;SDS011;28709;52.030;5.652;2022-12-07T08:29:07;3.78;;;1.90;;
43088;SDS011;28709;52.030;5.652;2022-12-07T08:31:32;7.18;;;2.00;;
43088;SDS011;28709;52.030;5.652;2022-12-07T08:33:58;2.20;;;1.30;;
43088;SDS011;28709;52.030;5.652;2022-12-07T08:36:24;5.78;;;1.40;;
43088;SDS011;28709;52.030;5.652;2022-12-07T08:38:49;3.50;;;1.10;;
43088;SDS011;28709;52.030;5.652;2022-12-07T08:41:15;8.13;;;2.15;;
43088;SDS011;28709;52.030;5.652;2022-12-07T08:43:41;3.95;;;2.08;;
43088;SDS011;28709;52.030;5.652;2022-12-07T08:48:48;8.25;;;1.80;;
43088;SDS011;28709;52.030;5.652;2022-12-07T08:51:36;7.45;;;2.00;;
43088;SDS011;28709;52.030;5.652;2022-12-07T08:54:04;4.53;;;1.75;;
43088;SDS011;28709;52.030;5.652;2022-12-07T08:56:32;6.75;;;1.80;;
43088;SDS011;28709;52.030;5.652;2022-12-07T08:58:58;5.07;;;1.30;;
43088;SDS011;28709;52.030;5.652;2022-12-07T09:01:24;6.60;;;1.73;;
43088;SDS011;28709;52.030;5.652;2022-12-07T09:03:50;4.85;;;1.40;;
43088;SDS011;28709;52.030;5.652;2022-12-07T09:06:16;7.90;;;1.40;;
43088;SDS011;28709;52.030;5.652;2022-12-07T09:08:42;4.07;;;1.60;;
43088;SDS011;28709;52.030;5.652;2022-12-07T09:11:12;9.77;;;2.03;;
43088;SDS011;28709;52.030;5.652;2022-12-07T09:13:38;10.27;;;2.15;;
43088;SDS011;28709;52.030;5.652;2022-12-07T09:16:03;7.50;;;2.53;;
43088;SDS011;28709;52.030;5.652;2022-12-07T09:18:29;2.80;;;1.00;;
43088;SDS011;28709;52.030;5.652;2022-12-07T09:20:55;5.70;;;1.67;;
43088;SDS011;28709;52.030;5.652;2022-12-07T09:23:21;5.35;;;1.30;;
43088;SDS011;28709;52.030;5.652;2022-12-07T09:25:47;5.53;;;1.13;;
43088;SDS011;28709;52.030;5.652;2022-12-07T09:28:13;3.00;;;1.08;;
43088;SDS011;28709;52.030;5.652;2022-12-07T09:30:39;3.13;;;1.27;;
43088;SDS011;28709;52.030;5.652;2022-12-07T09:33:09;5.55;;;1.38;;
43088;SDS011;28709;52.030;5.652;2022-12-07T09:35:35;2.88;;;0.90;;
43088;SDS011;28709;52.030;5.652;2022-12-07T09:38:00;3.58;;;0.70;;
43088;SDS011;28709;52.030;5.652;2022-12-07T09:40:27;3.00;;;0.90;;
43088;SDS011;28709;52.030;5.652;2022-12-07T09:42:53;5.10;;;1.20;;
43088;SDS011;28709;52.030;5.652;2022-12-07T09:45:22;5.50;;;1.40;;
43088;SDS011;28709;52.030;5.652;2022-12-07T09:47:49;4.78;;;1.20;;
43088;SDS011;28709;52.030;5.652;2022-12-07T09:50:16;3.00;;;0.82;;
43088;SDS011;28709;52.030;5.652;2022-12-07T09:52:50;3.03;;;0.85;;
43088;SDS011;28709;52.030;5.652;2022-12-07T09:55:28;3.22;;;0.90;;
43088;SDS011;28709;52.030;5.652;2022-12-07T09:57:55;4.57;;;1.33;;
43088;SDS011;28709;52.030;5.652;2022-12-07T10:00:23;3.95;;;0.88;;
43088;SDS011;28709;52.030;5.652;2022-12-07T10:02:52;2.55;;;1.15;;
43088;SDS011;28709;52.030;5.652;2022-12-07T10:05:35;3.60;;;1.20;;
43088;SDS011;28709;52.030;5.652;2022-12-07T10:08:07;2.08;;;1.08;;
43088;SDS011;28709;52.030;5.652;2022-12-07T10:10:37;5.10;;;1.73;;
43088;SDS011;28709;52.030;5.652;2022-12-07T10:13:08;6.50;;;1.60;;
43088;SDS011;28709;52.030;5.652;2022-12-07T10:18:28;5.40;;;1.30;;
43088;SDS011;28709;52.030;5.652;2022-12-07T10:21:08;11.48;;;1.55;;
43088;SDS011;28709;52.030;5.652;2022-12-07T10:23:42;5.85;;;1.55;;
43088;SDS011;28709;52.030;5.652;2022-12-07T10:29:31;3.75;;;0.80;;
43088;SDS011;28709;52.030;5.652;2022-12-07T10:34:42;4.35;;;0.85;;
43088;SDS011;28709;52.030;5.652;2022-12-07T10:39:53;3.83;;;1.15;;
43088;SDS011;28709;52.030;5.652;2022-12-07T10:42:24;3.17;;;1.08;;
43088;SDS011;28709;52.030;5.652;2022-12-07T10:45:13;7.82;;;0.93;;
43088;SDS011;28709;52.030;5.652;2022-12-07T10:50:28;6.38;;;1.83;;
43088;SDS011;28709;52.030;5.652;2022-12-07T10:53:38;2.67;;;0.80;;
43088;SDS011;28709;52.030;5.652;2022-12-07T11:06:35;6.57;;;1.33;;
43088;SDS011;28709;52.030;5.652;2022-12-07T11:11:45;4.25;;;1.10;;
43088;SDS011;28709;52.030;5.652;2022-12-07T11:16:59;2.63;;;0.90;;
43088;SDS011;28709;52.030;5.652;2022-12-07T11:28:11;1.20;;;0.60;;
43088;SDS011;28709;52.030;5.652;2022-12-07T11:30:54;4.35;;;1.05;;
43088;SDS011;28709;52.030;5.652;2022-12-07T11:33:37;5.72;;;1.70;;
43088;SDS011;28709;52.030;5.652;2022-12-07T11:36:16;4.78;;;1.48;;
43088;SDS011;28709;52.030;5.652;2022-12-07T11:38:44;3.92;;;1.15;;
43088;SDS011;28709;52.030;5.652;2022-12-07T11:41:17;3.42;;;1.10;;
43088;SDS011;28709;52.030;5.652;2022-12-07T11:46:45;4.40;;;1.45;;
43088;SDS011;28709;52.030;5.652;2022-12-07T11:49:19;3.15;;;0.82;;
43088;SDS011;28709;52.030;5.652;2022-12-07T11:51:47;3.03;;;0.88;;
43088;SDS011;28709;52.030;5.652;2022-12-07T11:54:27;4.53;;;1.00;;
43088;SDS011;28709;52.030;5.652;2022-12-07T11:57:04;5.63;;;1.60;;
43088;SDS011;28709;52.030;5.652;2022-12-07T11:59:42;5.80;;;1.38;;
43088;SDS011;28709;52.030;5.652;2022-12-07T12:02:23;5.10;;;1.60;;
43088;SDS011;28709;52.030;5.652;2022-12-07T12:07:46;2.47;;;1.00;;
43088;SDS011;28709;52.030;5.652;2022-12-07T12:10:40;5.90;;;1.77;;
43088;SDS011;28709;52.030;5.652;2022-12-07T12:16:08;5.82;;;1.30;;
43088;SDS011;28709;52.030;5.652;2022-12-07T12:21:29;3.47;;;1.30;;
43088;SDS011;28709;52.030;5.652;2022-12-07T12:23:58;2.78;;;1.08;;
43088;SDS011;28709;52.030;5.652;2022-12-07T12:26:33;2.65;;;0.90;;
43088;SDS011;28709;52.030;5.652;2022-12-07T12:29:03;5.75;;;1.52;;
43088;SDS011;28709;52.030;5.652;2022-12-07T12:31:32;5.88;;;1.40;;
43088;SDS011;28709;52.030;5.652;2022-12-07T12:34:02;2.63;;;0.98;;
43088;SDS011;28709;52.030;5.652;2022-12-07T12:39:13;2.85;;;1.00;;
43088;SDS011;28709;52.030;5.652;2022-12-07T12:47:00;4.65;;;1.20;;
43088;SDS011;28709;52.030;5.652;2022-12-07T12:54:40;4.22;;;1.08;;
43088;SDS011;28709;52.030;5.652;2022-12-07T12:57:34;3.70;;;1.13;;
43088;SDS011;28709;52.030;5.652;2022-12-07T13:00:21;4.18;;;0.90;;
43088;SDS011;28709;52.030;5.652;2022-12-07T13:02:49;2.58;;;0.80;;
43088;SDS011;28709;52.030;5.652;2022-12-07T13:05:19;2.65;;;1.10;;
43088;SDS011;28709;52.030;5.652;2022-12-07T13:26:17;3.08;;;1.23;;
43088;SDS011;28709;52.030;5.652;2022-12-07T13:28:58;6.05;;;1.08;;
43088;SDS011;28709;52.030;5.652;2022-12-07T13:31:33;3.17;;;1.00;;
43088;SDS011;28709;52.030;5.652;2022-12-07T13:34:26;3.30;;;1.17;;
43088;SDS011;28709;52.030;5.652;2022-12-07T13:36:52;24.58;;;4.55;;
43088;SDS011;28709;52.030;5.652;2022-12-07T13:39:22;11.13;;;1.70;;
43088;SDS011;28709;52.030;5.652;2022-12-07T13:41:54;4.70;;;1.30;;
43088;SDS011;28709;52.030;5.652;2022-12-07T13:44:22;3.25;;;1.08;;
43088;SDS011;28709;52.030;5.652;2022-12-07T13:49:22;1.33;;;0.40;;
43088;SDS011;28709;52.030;5.652;2022-12-07T13:51:48;2.53;;;0.80;;
43088;SDS011;28709;52.030;5.652;2022-12-07T13:54:14;2.13;;;0.70;;
43088;SDS011;28709;52.030;5.652;2022-12-07T13:56:41;2.50;;;0.70;;
43088;SDS011;28709;52.030;5.652;2022-12-07T13:59:28;1.98;;;0.73;;
43088;SDS011;28709;52.030;5.652;2022-12-07T14:01:53;4.72;;;1.08;;
43088;SDS011;28709;52.030;5.652;2022-12-07T14:06:59;2.58;;;0.45;;
43088;SDS011;28709;52.030;5.652;2022-12-07T14:09:27;1.85;;;0.40;;
43088;SDS011;28709;52.030;5.652;2022-12-07T14:11:55;4.00;;;0.60;;
43088;SDS011;28709;52.030;5.652;2022-12-07T14:14:29;1.73;;;0.43;;
43088;SDS011;28709;52.030;5.652;2022-12-07T14:19:40;1.13;;;0.55;;
43088;SDS011;28709;52.030;5.652;2022-12-07T14:27:39;3.25;;;0.88;;
43088;SDS011;28709;52.030;5.652;2022-12-07T14:30:16;1.02;;;0.43;;
43088;SDS011;28709;52.030;5.652;2022-12-07T14:32:43;3.30;;;0.98;;
43088;SDS011;28709;52.030;5.652;2022-12-07T14:35:14;4.07;;;0.80;;
43088;SDS011;28709;52.030;5.652;2022-12-07T14:37:44;2.38;;;0.68;;
43088;SDS011;28709;52.030;5.652;2022-12-07T14:40:15;4.45;;;0.88;;
43088;SDS011;28709;52.030;5.652;2022-12-07T14:42:50;2.53;;;0.80;;
43088;SDS011;28709;52.030;5.652;2022-12-07T14:45:20;2.85;;;1.02;;
43088;SDS011;28709;52.030;5.652;2022-12-07T14:47:47;6.85;;;1.60;;
43088;SDS011;28709;52.030;5.652;2022-12-07T14:50:16;2.17;;;0.80;;
43088;SDS011;28709;52.030;5.652;2022-12-07T14:52:53;3.75;;;1.00;;
43088;SDS011;28709;52.030;5.652;2022-12-07T14:55:27;9.68;;;1.67;;
43088;SDS011;28709;52.030;5.652;2022-12-07T14:57:54;1.97;;;1.03;;
43088;SDS011;28709;52.030;5.652;2022-12-07T15:00:21;4.47;;;1.88;;
43088;SDS011;28709;52.030;5.652;2022-12-07T15:02:49;3.83;;;1.10;;
43088;SDS011;28709;52.030;5.652;2022-12-07T15:05:16;4.28;;;1.30;;
43088;SDS011;28709;52.030;5.652;2022-12-07T15:07:42;3.30;;;1.00;;
43088;SDS011;28709;52.030;5.652;2022-12-07T15:10:13;4.68;;;1.60;;
43088;SDS011;28709;52.030;5.652;2022-12-07T15:12:47;6.22;;;2.30;;
43088;SDS011;28709;52.030;5.652;2022-12-07T15:15:13;3.45;;;1.70;;
43088;SDS011;28709;52.030;5.652;2022-12-07T15:17:39;4.18;;;1.48;;
43088;SDS011;28709;52.030;5.652;2022-12-07T15:20:05;4.50;;;1.50;;
43088;SDS011;28709;52.030;5.652;2022-12-07T15:22:36;6.20;;;1.48;;
43088;SDS011;28709;52.030;5.652;2022-12-07T15:25:02;4.75;;;1.73;;
43088;SDS011;28709;52.030;5.652;2022-12-07T15:27:29;4.10;;;1.40;;
43088;SDS011;28709;52.030;5.652;2022-12-07T15:29:55;4.97;;;1.10;;
43088;SDS011;28709;52.030;5.652;2022-12-07T15:32:21;4.50;;;1.25;;
43088;SDS011;28709;52.030;5.652;2022-12-07T15:34:48;6.78;;;1.27;;
43088;SDS011;28709;52.030;5.652;2022-12-07T15:37:15;3.05;;;0.82;;
43088;SDS011;28709;52.030;5.652;2022-12-07T15:39:41;8.55;;;2.00;;
43088;SDS011;28709;52.030;5.652;2022-12-07T15:42:06;3.90;;;1.55;;
43088;SDS011;28709;52.030;5.652;2022-12-07T15:44:32;2.10;;;1.10;;
43088;SDS011;28709;52.030;5.652;2022-12-07T15:47:16;5.05;;;2.00;;
43088;SDS011;28709;52.030;5.652;2022-12-07T15:49:42;4.15;;;1.60;;
43088;SDS011;28709;52.030;5.652;2022-12-07T15:52:08;6.10;;;1.67;;
43088;SDS011;28709;52.030;5.652;2022-12-07T15:54:33;4.28;;;1.10;;
43088;SDS011;28709;52.030;5.652;2022-12-07T15:56:59;2.42;;;0.70;;
43088;SDS011;28709;52.030;5.652;2022-12-07T15:59:26;2.25;;;1.02;;
43088;SDS011;28709;52.030;5.652;2022-12-07T16:01:52;2.40;;;0.98;;
43088;SDS011;28709;52.030;5.652;2022-12-07T16:04:18;2.65;;;0.93;;
43088;SDS011;28709;52.030;5.652;2022-12-07T16:06:44;2.78;;;1.10;;
43088;SDS011;28709;52.030;5.652;2022-12-07T16:09:10;5.35;;;1.30;;
43088;SDS011;28709;52.030;5.652;2022-12-07T16:11:36;3.83;;;1.40;;
43088;SDS011;28709;52.030;5.652;2022-12-07T16:14:01;11.00;;;2.00;;
43088;SDS011;28709;52.030;5.652;2022-12-07T16:16:27;10.55;;;1.67;;
43088;SDS011;28709;52.030;5.652;2022-12-07T16:18:53;6.05;;;1.73;;
43088;SDS011;28709;52.030;5.652;2022-12-07T16:21:19;3.35;;;1.40;;
43088;SDS011;28709;52.030;5.652;2022-12-07T16:23:45;5.38;;;1.58;;
43088;SDS011;28709;52.030;5.652;2022-12-07T16:26:15;4.97;;;1.83;;
43088;SDS011;28709;52.030;5.652;2022-12-07T16:28:43;4.93;;;1.25;;
43088;SDS011;28709;52.030;5.652;2022-12-07T16:31:11;5.90;;;1.17;;
43088;SDS011;28709;52.030;5.652;2022-12-07T16:33:40;5.05;;;1.52;;
43088;SDS011;28709;52.030;5.652;2022-12-07T16:36:07;3.03;;;1.35;;
43088;SDS011;28709;52.030;5.652;2022-12-07T16:38:34;2.03;;;1.10;;
43088;SDS011;28709;52.030;5.652;2022-12-07T16:41:00;6.28;;;2.13;;
43088;SDS011;28709;52.030;5.652;2022-12-07T16:43:26;3.72;;;1.02;;
43088;SDS011;28709;52.030;5.652;2022-12-07T16:45:52;2.78;;;1.10;;
43088;SDS011;28709;52.030;5.652;2022-12-07T16:48:18;3.08;;;1.10;;
43088;SDS011;28709;52.030;5.652;2022-12-07T16:50:43;3.13;;;0.95;;
43088;SDS011;28709;52.030;5.652;2022-12-07T16:53:10;3.55;;;1.27;;
43088;SDS011;28709;52.030;5.652;2022-12-07T16:55:44;3.00;;;1.38;;
43088;SDS011;28709;52.030;5.652;2022-12-07T16:58:13;5.40;;;1.67;;
43088;SDS011;28709;52.030;5.652;2022-12-07T17:00:41;4.85;;;1.52;;
43088;SDS011;28709;52.030;5.652;2022-12-07T17:03:08;4.15;;;1.35;;
43088;SDS011;28709;52.030;5.652;2022-12-07T17:05:37;5.18;;;1.45;;
43088;SDS011;28709;52.030;5.652;2022-12-07T17:08:04;2.13;;;1.10;;
43088;SDS011;28709;52.030;5.652;2022-12-07T17:10:29;3.70;;;1.05;;
43088;SDS011;28709;52.030;5.652;2022-12-07T17:12:57;9.50;;;1.83;;
43088;SDS011;28709;52.030;5.652;2022-12-07T17:15:23;1.58;;;1.00;;
43088;SDS011;28709;52.030;5.652;2022-12-07T17:20:20;1.85;;;1.08;;
43088;SDS011;28709;52.030;5.652;2022-12-07T17:22:47;4.10;;;1.23;;